sensor_id;sensor_type;location;lat;lon;timestamp;P1;durP1;ratioP1;P2;durP2;ratioP2
6131;SDS011;3097;42.692;23.278;2023-02-15T00:01:50;45.67;;;18.67;;
6131;SDS011;3097;42.692;23.278;2023-02-15T00:04:17;42.67;;;18.47;;
6131;SDS011;3097;42.692;23.278;2023-02-15T00:06:46;48.47;;;19.03;;
6131;SDS011;3097;42.692;23.278;2023-02-15T00:09:12;48.23;;;19.53;;
6131;SDS011;3097;42.692;23.278;2023-02-15T00:11:38;52.23;;;19.83;;
6131;SDS011;3097;42.692;23.278;2023-02-15T00:14:09;44.40;;;19.50;;
6131;SDS011;3097;42.692;23.278;2023-02-15T00:16:35;44.17;;;18.93;;
6131;SDS011;3097;42.692;23.278;2023-02-15T00:19:01;46.60;;;18.97;;
6131;SDS011;3097;42.692;23.278;2023-02-15T00:21:27;42.27;;;19.03;;
6131;SDS011;3097;42.692;23.278;2023-02-15T00:23:54;42.73;;;18.77;;
6131;SDS011;3097;42.692;23.278;2023-02-15T00:26:20;46.53;;;18.37;;
6131;SDS011;3097;42.692;23.278;2023-02-15T00:28:45;45.97;;;17.77;;
6131;SDS011;3097;42.692;23.278;2023-02-15T00:31:11;42.87;;;18.47;;
6131;SDS011;3097;42.692;23.278;2023-02-15T00:33:38;42.47;;;18.13;;
6131;SDS011;3097;42.692;23.278;2023-02-15T00:36:04;42.43;;;17.17;;
6131;SDS011;3097;42.692;23.278;2023-02-15T00:38:31;44.30;;;17.57;;
6131;SDS011;3097;42.692;23.278;2023-02-15T00:40:58;36.10;;;17.30;;
6131;SDS011;3097;42.692;23.278;2023-02-15T00:43:25;41.70;;;17.70;;
6131;SDS011;3097;42.692;23.278;2023-02-15T00:45:51;42.60;;;17.43;;
6131;SDS011;3097;42.692;23.278;2023-02-15T00:48:17;47.00;;;18.53;;
6131;SDS011;3097;42.692;23.278;2023-02-15T00:50:46;41.70;;;18.27;;
6131;SDS011;3097;42.692;23.278;2023-02-15T00:53:14;37.07;;;16.23;;
6131;SDS011;3097;42.692;23.278;2023-02-15T00:55:39;37.93;;;16.80;;
6131;SDS011;3097;42.692;23.278;2023-02-15T00:58:09;38.90;;;16.57;;
6131;SDS011;3097;42.692;23.278;2023-02-15T01:00:35;36.33;;;16.67;;
6131;SDS011;3097;42.692;23.278;2023-02-15T01:03:01;40.77;;;17.47;;
6131;SDS011;3097;42.692;23.278;2023-02-15T01:05:27;38.63;;;17.43;;
6131;SDS011;3097;42.692;23.278;2023-02-15T01:07:54;40.20;;;17.20;;
6131;SDS011;3097;42.692;23.278;2023-02-15T01:10:20;41.80;;;17.47;;
6131;SDS011;3097;42.692;23.278;2023-02-15T01:12:45;41.23;;;17.87;;
6131;SDS011;3097;42.692;23.278;2023-02-15T01:15:11;39.57;;;17.07;;
6131;SDS011;3097;42.692;23.278;2023-02-15T01:17:36;34.97;;;15.83;;
6131;SDS011;3097;42.692;23.278;2023-02-15T01:20:02;35.77;;;16.13;;
6131;SDS011;3097;42.692;23.278;2023-02-15T01:22:28;38.37;;;15.67;;
6131;SDS011;3097;42.692;23.278;2023-02-15T01:24:53;34.57;;;15.83;;
6131;SDS011;3097;42.692;23.278;2023-02-15T01:27:19;36.50;;;15.53;;
6131;SDS011;3097;42.692;23.278;2023-02-15T01:29:44;38.63;;;16.83;;
6131;SDS011;3097;42.692;23.278;2023-02-15T01:32:09;36.20;;;16.70;;
6131;SDS011;3097;42.692;23.278;2023-02-15T01:34:35;33.70;;;15.57;;
6131;SDS011;3097;42.692;23.278;2023-02-15T01:37:00;35.90;;;16.47;;
6131;SDS011;3097;42.692;23.278;2023-02-15T01:39:26;40.70;;;16.33;;
6131;SDS011;3097;42.692;23.278;2023-02-15T01:41:51;37.30;;;15.67;;
6131;SDS011;3097;42.692;23.278;2023-02-15T01:47:40;32.40;;;14.33;;
6131;SDS011;3097;42.692;23.278;2023-02-15T01:55:29;36.63;;;15.73;;
6131;SDS011;3097;42.692;23.278;2023-02-15T01:57:58;38.67;;;15.37;;
6131;SDS011;3097;42.692;23.278;2023-02-15T02:00:24;32.37;;;14.53;;
6131;SDS011;3097;42.692;23.278;2023-02-15T02:02:50;34.93;;;15.67;;
6131;SDS011;3097;42.692;23.278;2023-02-15T02:05:18;36.50;;;15.90;;
6131;SDS011;3097;42.692;23.278;2023-02-15T02:07:44;35.30;;;14.47;;
6131;SDS011;3097;42.692;23.278;2023-02-15T02:10:13;35.80;;;15.57;;
6131;SDS011;3097;42.692;23.278;2023-02-15T02:12:40;34.80;;;15.30;;
6131;SDS011;3097;42.692;23.278;2023-02-15T02:15:08;36.80;;;15.70;;
6131;SDS011;3097;42.692;23.278;2023-02-15T02:29:07;37.20;;;16.97;;
6131;SDS011;3097;42.692;23.278;2023-02-15T02:40:25;34.80;;;16.03;;
6131;SDS011;3097;42.692;23.278;2023-02-15T02:46:39;34.07;;;14.47;;
6131;SDS011;3097;42.692;23.278;2023-02-15T02:49:00;32.57;;;15.37;;
6131;SDS011;3097;42.692;23.278;2023-02-15T02:51:26;36.30;;;16.07;;
6131;SDS011;3097;42.692;23.278;2023-02-15T02:53:53;31.57;;;14.47;;
6131;SDS011;3097;42.692;23.278;2023-02-15T02:56:29;37.33;;;15.03;;
6131;SDS011;3097;42.692;23.278;2023-02-15T02:59:12;36.63;;;14.93;;
6131;SDS011;3097;42.692;23.278;2023-02-15T03:04:22;37.10;;;15.03;;
6131;SDS011;3097;42.692;23.278;2023-02-15T03:14:44;36.97;;;16.17;;
6131;SDS011;3097;42.692;23.278;2023-02-15T03:17:12;38.90;;;14.87;;
6131;SDS011;3097;42.692;23.278;2023-02-15T03:19:39;36.00;;;15.33;;
6131;SDS011;3097;42.692;23.278;2023-02-15T03:22:11;38.00;;;16.07;;
6131;SDS011;3097;42.692;23.278;2023-02-15T03:27:06;38.10;;;15.90;;
6131;SDS011;3097;42.692;23.278;2023-02-15T03:29:36;39.30;;;17.37;;
6131;SDS011;3097;42.692;23.278;2023-02-15T03:32:03;36.57;;;17.27;;
6131;SDS011;3097;42.692;23.278;2023-02-15T03:34:32;40.50;;;17.80;;
6131;SDS011;3097;42.692;23.278;2023-02-15T03:39:56;37.73;;;16.80;;
6131;SDS011;3097;42.692;23.278;2023-02-15T03:42:46;38.83;;;16.87;;
6131;SDS011;3097;42.692;23.278;2023-02-15T03:45:21;69.53;;;31.23;;
6131;SDS011;3097;42.692;23.278;2023-02-15T03:47:50;56.70;;;23.17;;
6131;SDS011;3097;42.692;23.278;2023-02-15T03:50:21;42.50;;;18.90;;
6131;SDS011;3097;42.692;23.278;2023-02-15T03:53:10;43.27;;;19.03;;
6131;SDS011;3097;42.692;23.278;2023-02-15T03:55:39;36.33;;;16.53;;
6131;SDS011;3097;42.692;23.278;2023-02-15T03:58:04;38.37;;;17.77;;
6131;SDS011;3097;42.692;23.278;2023-02-15T04:00:49;40.07;;;17.90;;
6131;SDS011;3097;42.692;23.278;2023-02-15T04:03:49;37.50;;;17.80;;
6131;SDS011;3097;42.692;23.278;2023-02-15T04:06:21;41.43;;;18.07;;
6131;SDS011;3097;42.692;23.278;2023-02-15T04:08:46;33.13;;;15.53;;
6131;SDS011;3097;42.692;23.278;2023-02-15T04:11:30;39.17;;;17.20;;
6131;SDS011;3097;42.692;23.278;2023-02-15T04:13:55;38.30;;;16.27;;
6131;SDS011;3097;42.692;23.278;2023-02-15T04:16:22;37.07;;;17.10;;
6131;SDS011;3097;42.692;23.278;2023-02-15T04:18:48;37.83;;;16.80;;
6131;SDS011;3097;42.692;23.278;2023-02-15T04:21:32;38.33;;;16.93;;
6131;SDS011;3097;42.692;23.278;2023-02-15T04:24:16;35.97;;;17.67;;
6131;SDS011;3097;42.692;23.278;2023-02-15T04:27:01;37.90;;;17.60;;
6131;SDS011;3097;42.692;23.278;2023-02-15T04:29:28;43.43;;;20.63;;
6131;SDS011;3097;42.692;23.278;2023-02-15T04:31:55;43.10;;;22.00;;
6131;SDS011;3097;42.692;23.278;2023-02-15T04:34:22;44.83;;;20.70;;
6131;SDS011;3097;42.692;23.278;2023-02-15T04:36:47;55.77;;;24.63;;
6131;SDS011;3097;42.692;23.278;2023-02-15T04:39:13;43.77;;;20.10;;
6131;SDS011;3097;42.692;23.278;2023-02-15T04:41:40;43.57;;;20.03;;
6131;SDS011;3097;42.692;23.278;2023-02-15T04:44:06;47.67;;;18.67;;
6131;SDS011;3097;42.692;23.278;2023-02-15T04:46:31;39.97;;;16.80;;
6131;SDS011;3097;42.692;23.278;2023-02-15T04:48:57;34.93;;;16.83;;
6131;SDS011;3097;42.692;23.278;2023-02-15T04:51:22;35.63;;;15.93;;
6131;SDS011;3097;42.692;23.278;2023-02-15T04:53:48;32.37;;;15.10;;
6131;SDS011;3097;42.692;23.278;2023-02-15T04:56:14;35.40;;;15.20;;
6131;SDS011;3097;42.692;23.278;2023-02-15T04:58:40;31.30;;;14.37;;
6131;SDS011;3097;42.692;23.278;2023-02-15T05:01:06;30.10;;;15.23;;
6131;SDS011;3097;42.692;23.278;2023-02-15T05:03:32;31.77;;;15.17;;
6131;SDS011;3097;42.692;23.278;2023-02-15T05:05:58;39.90;;;15.47;;
6131;SDS011;3097;42.692;23.278;2023-02-15T05:08:23;36.60;;;15.60;;
6131;SDS011;3097;42.692;23.278;2023-02-15T05:10:49;31.97;;;15.13;;
6131;SDS011;3097;42.692;23.278;2023-02-15T05:13:14;37.93;;;16.93;;
6131;SDS011;3097;42.692;23.278;2023-02-15T05:15:40;37.27;;;16.63;;
6131;SDS011;3097;42.692;23.278;2023-02-15T05:18:05;45.97;;;17.30;;
6131;SDS011;3097;42.692;23.278;2023-02-15T05:20:32;47.20;;;19.00;;
6131;SDS011;3097;42.692;23.278;2023-02-15T05:22:58;41.83;;;17.47;;
6131;SDS011;3097;42.692;23.278;2023-02-15T05:25:24;38.77;;;16.83;;
6131;SDS011;3097;42.692;23.278;2023-02-15T05:28:09;38.83;;;17.33;;
6131;SDS011;3097;42.692;23.278;2023-02-15T05:30:44;32.80;;;16.07;;
6131;SDS011;3097;42.692;23.278;2023-02-15T05:33:13;37.90;;;17.77;;
6131;SDS011;3097;42.692;23.278;2023-02-15T05:35:39;40.17;;;17.03;;
6131;SDS011;3097;42.692;23.278;2023-02-15T05:38:04;38.30;;;17.03;;
6131;SDS011;3097;42.692;23.278;2023-02-15T05:40:30;43.70;;;18.53;;
6131;SDS011;3097;42.692;23.278;2023-02-15T05:42:55;43.20;;;19.70;;
6131;SDS011;3097;42.692;23.278;2023-02-15T05:45:21;44.70;;;21.23;;
6131;SDS011;3097;42.692;23.278;2023-02-15T05:47:47;46.13;;;21.17;;
6131;SDS011;3097;42.692;23.278;2023-02-15T05:50:12;47.40;;;20.43;;
6131;SDS011;3097;42.692;23.278;2023-02-15T05:52:38;45.10;;;19.87;;
6131;SDS011;3097;42.692;23.278;2023-02-15T05:55:04;40.60;;;19.63;;
6131;SDS011;3097;42.692;23.278;2023-02-15T05:57:30;35.87;;;17.27;;
6131;SDS011;3097;42.692;23.278;2023-02-15T05:59:55;34.77;;;16.13;;
6131;SDS011;3097;42.692;23.278;2023-02-15T06:02:21;35.83;;;17.03;;
6131;SDS011;3097;42.692;23.278;2023-02-15T06:04:46;35.00;;;15.87;;
6131;SDS011;3097;42.692;23.278;2023-02-15T06:07:12;39.73;;;18.00;;
6131;SDS011;3097;42.692;23.278;2023-02-15T06:09:37;33.87;;;16.47;;
6131;SDS011;3097;42.692;23.278;2023-02-15T06:12:02;37.73;;;15.73;;
6131;SDS011;3097;42.692;23.278;2023-02-15T06:14:28;31.77;;;14.47;;
6131;SDS011;3097;42.692;23.278;2023-02-15T06:16:55;33.40;;;15.23;;
6131;SDS011;3097;42.692;23.278;2023-02-15T06:19:20;29.47;;;15.27;;
6131;SDS011;3097;42.692;23.278;2023-02-15T06:21:47;33.83;;;15.57;;
6131;SDS011;3097;42.692;23.278;2023-02-15T06:24:13;36.17;;;16.57;;
6131;SDS011;3097;42.692;23.278;2023-02-15T06:26:39;43.60;;;19.37;;
6131;SDS011;3097;42.692;23.278;2023-02-15T06:29:04;44.33;;;19.20;;
6131;SDS011;3097;42.692;23.278;2023-02-15T06:31:29;56.47;;;23.13;;
6131;SDS011;3097;42.692;23.278;2023-02-15T06:33:55;53.20;;;24.33;;
6131;SDS011;3097;42.692;23.278;2023-02-15T06:36:27;61.37;;;25.53;;
6131;SDS011;3097;42.692;23.278;2023-02-15T06:38:55;46.93;;;21.00;;
6131;SDS011;3097;42.692;23.278;2023-02-15T06:41:20;51.37;;;22.37;;
6131;SDS011;3097;42.692;23.278;2023-02-15T06:43:46;51.40;;;22.60;;
6131;SDS011;3097;42.692;23.278;2023-02-15T06:46:11;44.83;;;19.90;;
6131;SDS011;3097;42.692;23.278;2023-02-15T06:48:37;41.73;;;19.47;;
6131;SDS011;3097;42.692;23.278;2023-02-15T06:51:02;42.17;;;19.47;;
6131;SDS011;3097;42.692;23.278;2023-02-15T06:53:27;40.23;;;18.60;;
6131;SDS011;3097;42.692;23.278;2023-02-15T06:55:59;43.37;;;18.93;;
6131;SDS011;3097;42.692;23.278;2023-02-15T06:58:26;42.47;;;17.47;;
6131;SDS011;3097;42.692;23.278;2023-02-15T07:00:51;34.53;;;16.00;;
6131;SDS011;3097;42.692;23.278;2023-02-15T07:03:16;47.17;;;20.93;;
6131;SDS011;3097;42.692;23.278;2023-02-15T07:05:42;51.47;;;22.27;;
6131;SDS011;3097;42.692;23.278;2023-02-15T07:08:08;45.30;;;20.60;;
6131;SDS011;3097;42.692;23.278;2023-02-15T07:10:34;53.80;;;24.87;;
6131;SDS011;3097;42.692;23.278;2023-02-15T07:12:59;54.40;;;23.43;;
6131;SDS011;3097;42.692;23.278;2023-02-15T07:15:25;46.50;;;21.83;;
6131;SDS011;3097;42.692;23.278;2023-02-15T07:17:50;44.20;;;17.80;;
6131;SDS011;3097;42.692;23.278;2023-02-15T07:20:17;27.13;;;13.67;;
6131;SDS011;3097;42.692;23.278;2023-02-15T07:22:45;37.07;;;16.30;;
6131;SDS011;3097;42.692;23.278;2023-02-15T07:25:10;40.47;;;17.87;;
6131;SDS011;3097;42.692;23.278;2023-02-15T07:27:37;33.83;;;15.63;;
6131;SDS011;3097;42.692;23.278;2023-02-15T07:30:03;33.43;;;15.17;;
6131;SDS011;3097;42.692;23.278;2023-02-15T07:32:30;32.70;;;16.17;;
6131;SDS011;3097;42.692;23.278;2023-02-15T07:34:57;30.80;;;14.10;;
6131;SDS011;3097;42.692;23.278;2023-02-15T07:37:23;26.67;;;13.20;;
6131;SDS011;3097;42.692;23.278;2023-02-15T07:39:49;28.87;;;14.10;;
6131;SDS011;3097;42.692;23.278;2023-02-15T07:42:14;29.00;;;14.50;;
6131;SDS011;3097;42.692;23.278;2023-02-15T07:44:40;30.93;;;14.47;;
6131;SDS011;3097;42.692;23.278;2023-02-15T07:47:05;30.93;;;14.83;;
6131;SDS011;3097;42.692;23.278;2023-02-15T07:49:31;28.97;;;14.17;;
6131;SDS011;3097;42.692;23.278;2023-02-15T07:51:56;28.67;;;13.23;;
6131;SDS011;3097;42.692;23.278;2023-02-15T07:54:22;32.57;;;14.77;;
6131;SDS011;3097;42.692;23.278;2023-02-15T07:56:47;29.47;;;13.30;;
6131;SDS011;3097;42.692;23.278;2023-02-15T07:59:13;28.53;;;13.50;;
6131;SDS011;3097;42.692;23.278;2023-02-15T08:01:38;27.70;;;13.60;;
6131;SDS011;3097;42.692;23.278;2023-02-15T08:04:04;26.63;;;13.50;;
6131;SDS011;3097;42.692;23.278;2023-02-15T08:06:32;31.60;;;14.73;;
6131;SDS011;3097;42.692;23.278;2023-02-15T08:09:00;31.80;;;14.53;;
6131;SDS011;3097;42.692;23.278;2023-02-15T08:11:29;27.97;;;14.07;;
6131;SDS011;3097;42.692;23.278;2023-02-15T08:14:07;29.50;;;13.97;;
6131;SDS011;3097;42.692;23.278;2023-02-15T08:16:42;25.20;;;12.20;;
6131;SDS011;3097;42.692;23.278;2023-02-15T08:19:16;23.53;;;11.63;;
6131;SDS011;3097;42.692;23.278;2023-02-15T08:21:42;25.37;;;12.83;;
6131;SDS011;3097;42.692;23.278;2023-02-15T08:24:10;27.17;;;13.50;;
6131;SDS011;3097;42.692;23.278;2023-02-15T08:26:37;24.90;;;12.33;;
6131;SDS011;3097;42.692;23.278;2023-02-15T08:29:04;27.67;;;13.53;;
6131;SDS011;3097;42.692;23.278;2023-02-15T08:31:32;25.60;;;12.50;;
6131;SDS011;3097;42.692;23.278;2023-02-15T08:33:58;34.43;;;14.37;;
6131;SDS011;3097;42.692;23.278;2023-02-15T08:36:25;31.27;;;14.63;;
6131;SDS011;3097;42.692;23.278;2023-02-15T08:38:53;28.70;;;12.97;;
6131;SDS011;3097;42.692;23.278;2023-02-15T08:41:30;29.67;;;13.23;;
6131;SDS011;3097;42.692;23.278;2023-02-15T08:43:58;26.33;;;12.20;;
6131;SDS011;3097;42.692;23.278;2023-02-15T08:46:29;24.97;;;12.47;;
6131;SDS011;3097;42.692;23.278;2023-02-15T08:48:57;23.07;;;10.93;;
6131;SDS011;3097;42.692;23.278;2023-02-15T08:51:24;27.03;;;12.20;;
6131;SDS011;3097;42.692;23.278;2023-02-15T08:53:52;29.00;;;11.63;;
6131;SDS011;3097;42.692;23.278;2023-02-15T08:56:24;26.97;;;11.73;;
6131;SDS011;3097;42.692;23.278;2023-02-15T08:58:54;25.37;;;11.60;;
6131;SDS011;3097;42.692;23.278;2023-02-15T09:01:21;26.43;;;11.83;;
6131;SDS011;3097;42.692;23.278;2023-02-15T09:03:48;25.70;;;12.97;;
6131;SDS011;3097;42.692;23.278;2023-02-15T09:06:20;28.23;;;12.93;;
6131;SDS011;3097;42.692;23.278;2023-02-15T09:08:47;29.17;;;14.03;;
6131;SDS011;3097;42.692;23.278;2023-02-15T09:11:23;30.50;;;12.97;;
6131;SDS011;3097;42.692;23.278;2023-02-15T09:13:58;25.27;;;12.33;;
6131;SDS011;3097;42.692;23.278;2023-02-15T09:16:26;22.23;;;11.93;;
6131;SDS011;3097;42.692;23.278;2023-02-15T09:19:12;24.67;;;11.30;;
6131;SDS011;3097;42.692;23.278;2023-02-15T09:21:38;25.47;;;13.03;;
6131;SDS011;3097;42.692;23.278;2023-02-15T09:24:04;23.30;;;12.07;;
6131;SDS011;3097;42.692;23.278;2023-02-15T09:26:32;24.17;;;12.53;;
6131;SDS011;3097;42.692;23.278;2023-02-15T09:29:00;31.43;;;14.30;;
6131;SDS011;3097;42.692;23.278;2023-02-15T09:31:30;27.97;;;14.63;;
6131;SDS011;3097;42.692;23.278;2023-02-15T09:33:58;25.93;;;13.60;;
6131;SDS011;3097;42.692;23.278;2023-02-15T09:36:35;28.07;;;14.40;;
6131;SDS011;3097;42.692;23.278;2023-02-15T09:39:12;28.57;;;13.67;;
6131;SDS011;3097;42.692;23.278;2023-02-15T09:57:54;25.17;;;13.57;;
6131;SDS011;3097;42.692;23.278;2023-02-15T10:00:50;29.73;;;13.53;;
6131;SDS011;3097;42.692;23.278;2023-02-15T10:03:34;35.87;;;15.97;;
6131;SDS011;3097;42.692;23.278;2023-02-15T10:06:49;24.87;;;13.10;;
6131;SDS011;3097;42.692;23.278;2023-02-15T10:20:22;25.13;;;13.20;;
6131;SDS011;3097;42.692;23.278;2023-02-15T10:26:45;26.73;;;14.23;;
6131;SDS011;3097;42.692;23.278;2023-02-15T10:31:28;44.90;;;20.33;;
6131;SDS011;3097;42.692;23.278;2023-02-15T10:39:14;30.33;;;14.63;;
6131;SDS011;3097;42.692;23.278;2023-02-15T10:41:55;29.13;;;13.47;;
6131;SDS011;3097;42.692;23.278;2023-02-15T10:44:57;34.10;;;15.10;;
6131;SDS011;3097;42.692;23.278;2023-02-15T10:47:35;28.67;;;14.43;;
6131;SDS011;3097;42.692;23.278;2023-02-15T10:50:47;32.80;;;15.30;;
6131;SDS011;3097;42.692;23.278;2023-02-15T11:07:35;36.00;;;16.87;;
6131;SDS011;3097;42.692;23.278;2023-02-15T11:10:12;28.40;;;14.27;;
6131;SDS011;3097;42.692;23.278;2023-02-15T11:12:49;30.03;;;14.87;;
6131;SDS011;3097;42.692;23.278;2023-02-15T11:17:51;32.73;;;14.37;;
6131;SDS011;3097;42.692;23.278;2023-02-15T11:20:28;38.17;;;16.73;;
6131;SDS011;3097;42.692;23.278;2023-02-15T11:22:57;42.37;;;19.00;;
6131;SDS011;3097;42.692;23.278;2023-02-15T11:25:33;38.67;;;18.77;;
6131;SDS011;3097;42.692;23.278;2023-02-15T11:28:00;36.87;;;17.47;;
6131;SDS011;3097;42.692;23.278;2023-02-15T11:30:36;34.47;;;16.90;;
6131;SDS011;3097;42.692;23.278;2023-02-15T11:33:13;32.13;;;14.43;;
6131;SDS011;3097;42.692;23.278;2023-02-15T11:35:51;27.97;;;14.73;;
6131;SDS011;3097;42.692;23.278;2023-02-15T11:38:24;32.37;;;15.20;;
6131;SDS011;3097;42.692;23.278;2023-02-15T11:41:01;29.03;;;14.50;;
6131;SDS011;3097;42.692;23.278;2023-02-15T11:46:02;31.20;;;15.23;;
6131;SDS011;3097;42.692;23.278;2023-02-15T11:48:28;29.83;;;14.33;;
6131;SDS011;3097;42.692;23.278;2023-02-15T11:50:56;32.23;;;15.13;;
6131;SDS011;3097;42.692;23.278;2023-02-15T11:53:22;27.97;;;14.17;;
6131;SDS011;3097;42.692;23.278;2023-02-15T11:55:52;29.80;;;14.33;;
6131;SDS011;3097;42.692;23.278;2023-02-15T12:01:02;25.97;;;13.37;;
6131;SDS011;3097;42.692;23.278;2023-02-15T12:06:34;27.90;;;14.33;;
6131;SDS011;3097;42.692;23.278;2023-02-15T12:11:36;29.23;;;13.57;;
6131;SDS011;3097;42.692;23.278;2023-02-15T12:14:07;29.23;;;14.30;;
6131;SDS011;3097;42.692;23.278;2023-02-15T12:16:39;27.20;;;13.77;;
6131;SDS011;3097;42.692;23.278;2023-02-15T12:19:09;27.97;;;13.70;;
6131;SDS011;3097;42.692;23.278;2023-02-15T12:21:59;27.90;;;13.20;;
6131;SDS011;3097;42.692;23.278;2023-02-15T12:24:31;28.67;;;14.33;;
6131;SDS011;3097;42.692;23.278;2023-02-15T12:27:33;29.33;;;14.17;;
6131;SDS011;3097;42.692;23.278;2023-02-15T12:29:56;30.77;;;14.37;;
6131;SDS011;3097;42.692;23.278;2023-02-15T12:32:28;32.90;;;15.93;;
6131;SDS011;3097;42.692;23.278;2023-02-15T12:35:09;28.30;;;15.13;;
6131;SDS011;3097;42.692;23.278;2023-02-15T12:37:39;27.63;;;13.30;;
6131;SDS011;3097;42.692;23.278;2023-02-15T12:40:19;27.73;;;13.83;;
6131;SDS011;3097;42.692;23.278;2023-02-15T12:42:46;28.07;;;14.17;;
6131;SDS011;3097;42.692;23.278;2023-02-15T12:45:28;30.23;;;14.70;;
6131;SDS011;3097;42.692;23.278;2023-02-15T12:48:16;27.80;;;13.70;;
6131;SDS011;3097;42.692;23.278;2023-02-15T12:50:46;31.53;;;13.73;;
6131;SDS011;3097;42.692;23.278;2023-02-15T12:53:14;29.87;;;13.37;;
6131;SDS011;3097;42.692;23.278;2023-02-15T12:58:24;29.53;;;14.47;;
6131;SDS011;3097;42.692;23.278;2023-02-15T13:03:28;31.47;;;15.70;;
6131;SDS011;3097;42.692;23.278;2023-02-15T13:05:55;31.90;;;14.17;;
6131;SDS011;3097;42.692;23.278;2023-02-15T13:08:30;33.77;;;15.40;;
6131;SDS011;3097;42.692;23.278;2023-02-15T13:11:07;31.37;;;15.27;;
6131;SDS011;3097;42.692;23.278;2023-02-15T13:13:36;29.10;;;14.90;;
6131;SDS011;3097;42.692;23.278;2023-02-15T13:16:16;29.90;;;14.07;;
6131;SDS011;3097;42.692;23.278;2023-02-15T13:18:50;32.10;;;14.30;;
6131;SDS011;3097;42.692;23.278;2023-02-15T13:21:21;38.17;;;16.83;;
6131;SDS011;3097;42.692;23.278;2023-02-15T13:23:53;29.13;;;15.10;;
6131;SDS011;3097;42.692;23.278;2023-02-15T13:26:26;29.93;;;14.70;;
6131;SDS011;3097;42.692;23.278;2023-02-15T13:28:58;31.87;;;15.57;;
6131;SDS011;3097;42.692;23.278;2023-02-15T13:31:33;28.20;;;13.13;;
6131;SDS011;3097;42.692;23.278;2023-02-15T13:34:07;25.10;;;13.07;;
6131;SDS011;3097;42.692;23.278;2023-02-15T13:53:49;34.53;;;15.47;;
6131;SDS011;3097;42.692;23.278;2023-02-15T13:57:01;29.60;;;13.73;;
6131;SDS011;3097;42.692;23.278;2023-02-15T14:21:48;27.40;;;13.53;;
6131;SDS011;3097;42.692;23.278;2023-02-15T14:30:12;32.30;;;15.13;;
6131;SDS011;3097;42.692;23.278;2023-02-15T14:32:44;36.57;;;16.17;;
6131;SDS011;3097;42.692;23.278;2023-02-15T14:37:50;34.67;;;16.37;;
6131;SDS011;3097;42.692;23.278;2023-02-15T14:48:54;37.67;;;16.07;;
6131;SDS011;3097;42.692;23.278;2023-02-15T14:52:21;33.10;;;15.70;;
6131;SDS011;3097;42.692;23.278;2023-02-15T14:56:42;33.27;;;16.33;;
6131;SDS011;3097;42.692;23.278;2023-02-15T15:01:37;33.47;;;16.27;;
6131;SDS011;3097;42.692;23.278;2023-02-15T15:04:08;32.17;;;14.73;;
6131;SDS011;3097;42.692;23.278;2023-02-15T15:06:39;33.03;;;13.83;;
6131;SDS011;3097;42.692;23.278;2023-02-15T15:09:11;27.93;;;14.30;;
6131;SDS011;3097;42.692;23.278;2023-02-15T15:11:45;37.90;;;15.93;;
6131;SDS011;3097;42.692;23.278;2023-02-15T15:16:56;37.77;;;17.20;;
6131;SDS011;3097;42.692;23.278;2023-02-15T15:22:31;36.70;;;16.00;;
6131;SDS011;3097;42.692;23.278;2023-02-15T15:27:45;35.93;;;17.00;;
6131;SDS011;3097;42.692;23.278;2023-02-15T15:37:51;36.80;;;17.80;;
6131;SDS011;3097;42.692;23.278;2023-02-15T15:40:29;39.00;;;18.83;;
6131;SDS011;3097;42.692;23.278;2023-02-15T15:43:30;42.20;;;18.67;;
6131;SDS011;3097;42.692;23.278;2023-02-15T15:48:49;39.60;;;18.43;;
6131;SDS011;3097;42.692;23.278;2023-02-15T15:51:20;40.40;;;17.47;;
6131;SDS011;3097;42.692;23.278;2023-02-15T15:53:54;41.07;;;18.00;;
6131;SDS011;3097;42.692;23.278;2023-02-15T15:56:30;40.40;;;18.57;;
6131;SDS011;3097;42.692;23.278;2023-02-15T15:59:00;40.63;;;19.17;;
6131;SDS011;3097;42.692;23.278;2023-02-15T16:01:30;39.23;;;18.50;;
6131;SDS011;3097;42.692;23.278;2023-02-15T16:03:59;42.27;;;17.70;;
6131;SDS011;3097;42.692;23.278;2023-02-15T16:06:35;47.03;;;21.80;;
6131;SDS011;3097;42.692;23.278;2023-02-15T16:09:16;45.77;;;20.83;;
6131;SDS011;3097;42.692;23.278;2023-02-15T16:11:47;41.43;;;19.10;;
6131;SDS011;3097;42.692;23.278;2023-02-15T16:14:22;47.33;;;20.83;;
6131;SDS011;3097;42.692;23.278;2023-02-15T16:16:51;44.97;;;19.73;;
6131;SDS011;3097;42.692;23.278;2023-02-15T16:19:22;44.10;;;21.03;;
6131;SDS011;3097;42.692;23.278;2023-02-15T16:21:51;44.93;;;20.63;;
6131;SDS011;3097;42.692;23.278;2023-02-15T16:27:39;47.83;;;20.30;;
6131;SDS011;3097;42.692;23.278;2023-02-15T16:30:54;43.07;;;20.60;;
6131;SDS011;3097;42.692;23.278;2023-02-15T16:35:31;65.03;;;27.40;;
6131;SDS011;3097;42.692;23.278;2023-02-15T16:37:57;54.63;;;23.70;;
6131;SDS011;3097;42.692;23.278;2023-02-15T16:42:48;48.77;;;23.30;;
6131;SDS011;3097;42.692;23.278;2023-02-15T16:45:15;50.40;;;23.53;;
6131;SDS011;3097;42.692;23.278;2023-02-15T16:47:45;51.77;;;23.73;;
6131;SDS011;3097;42.692;23.278;2023-02-15T16:50:20;52.10;;;23.40;;
6131;SDS011;3097;42.692;23.278;2023-02-15T16:52:49;51.37;;;22.70;;
6131;SDS011;3097;42.692;23.278;2023-02-15T16:55:26;44.30;;;21.83;;
6131;SDS011;3097;42.692;23.278;2023-02-15T16:57:58;51.53;;;22.87;;
6131;SDS011;3097;42.692;23.278;2023-02-15T17:00:28;58.90;;;25.53;;
6131;SDS011;3097;42.692;23.278;2023-02-15T17:03:01;65.57;;;27.40;;
6131;SDS011;3097;42.692;23.278;2023-02-15T17:10:39;66.30;;;27.47;;
6131;SDS011;3097;42.692;23.278;2023-02-15T17:13:16;61.27;;;25.20;;
6131;SDS011;3097;42.692;23.278;2023-02-15T17:18:15;97.93;;;39.23;;
6131;SDS011;3097;42.692;23.278;2023-02-15T17:20:44;104.87;;;41.03;;
6131;SDS011;3097;42.692;23.278;2023-02-15T17:26:12;97.40;;;37.33;;
6131;SDS011;3097;42.692;23.278;2023-02-15T17:29:00;92.17;;;35.70;;
6131;SDS011;3097;42.692;23.278;2023-02-15T17:31:34;86.07;;;35.00;;
6131;SDS011;3097;42.692;23.278;2023-02-15T17:34:00;146.17;;;56.73;;
6131;SDS011;3097;42.692;23.278;2023-02-15T17:36:26;161.13;;;60.53;;
6131;SDS011;3097;42.692;23.278;2023-02-15T17:41:26;186.23;;;69.03;;
6131;SDS011;3097;42.692;23.278;2023-02-15T17:43:56;144.27;;;57.67;;
6131;SDS011;3097;42.692;23.278;2023-02-15T17:46:22;135.50;;;54.10;;
6131;SDS011;3097;42.692;23.278;2023-02-15T17:48:49;131.97;;;52.00;;
6131;SDS011;3097;42.692;23.278;2023-02-15T17:51:16;118.13;;;48.30;;
6131;SDS011;3097;42.692;23.278;2023-02-15T17:53:43;95.40;;;39.07;;
6131;SDS011;3097;42.692;23.278;2023-02-15T17:56:27;157.50;;;52.70;;
6131;SDS011;3097;42.692;23.278;2023-02-15T17:58:53;173.87;;;59.03;;
6131;SDS011;3097;42.692;23.278;2023-02-15T18:01:18;95.27;;;36.40;;
6131;SDS011;3097;42.692;23.278;2023-02-15T18:04:04;84.00;;;30.07;;
6131;SDS011;3097;42.692;23.278;2023-02-15T18:06:52;69.77;;;28.50;;
6131;SDS011;3097;42.692;23.278;2023-02-15T18:09:36;67.00;;;27.03;;
6131;SDS011;3097;42.692;23.278;2023-02-15T18:14:45;60.57;;;23.60;;
6131;SDS011;3097;42.692;23.278;2023-02-15T18:17:11;65.00;;;25.90;;
6131;SDS011;3097;42.692;23.278;2023-02-15T18:19:39;57.00;;;24.17;;
6131;SDS011;3097;42.692;23.278;2023-02-15T18:22:12;59.43;;;24.60;;
6131;SDS011;3097;42.692;23.278;2023-02-15T18:24:40;55.80;;;24.73;;
6131;SDS011;3097;42.692;23.278;2023-02-15T18:27:06;58.33;;;23.10;;
6131;SDS011;3097;42.692;23.278;2023-02-15T18:29:31;59.10;;;24.33;;
6131;SDS011;3097;42.692;23.278;2023-02-15T18:31:57;69.97;;;27.67;;
6131;SDS011;3097;42.692;23.278;2023-02-15T18:34:33;67.37;;;25.43;;
6131;SDS011;3097;42.692;23.278;2023-02-15T18:37:02;72.63;;;27.63;;